createdAt,value
2023-04-29T00:01:27.195Z,48.51
2023-04-29T00:04:37.966Z,49.37
2023-04-29T00:07:43.968Z,49.41
2023-04-29T00:10:50.932Z,49.70
2023-04-29T00:13:57.092Z,49.91
2023-04-29T00:17:05.157Z,50.04
2023-04-29T00:20:15.808Z,50.40
2023-04-29T00:23:22.634Z,50.82
2023-04-29T00:26:36.735Z,50.14
2023-04-29T00:29:43.524Z,50.15
2023-04-29T00:32:49.967Z,50.56
2023-04-29T00:35:59.542Z,50.13
2023-04-29T00:39:15.265Z,51.20
2023-04-29T00:42:22.799Z,51.65
2023-04-29T00:45:28.889Z,52.11
2023-04-29T00:48:40.318Z,52.74
2023-04-29T00:51:49.203Z,53.05
2023-04-29T00:55:00.254Z,53.25
2023-04-29T00:58:10.327Z,53.47
2023-04-29T01:01:17.506Z,53.28
2023-04-29T01:04:23.909Z,53.80
2023-04-29T01:07:45.770Z,53.69
2023-04-29T01:11:04.041Z,53.49
2023-04-29T01:14:11.161Z,53.12
2023-04-29T01:17:26.394Z,52.94
2023-04-29T01:20:42.283Z,52.99
2023-04-29T01:23:56.533Z,52.91
2023-04-29T01:27:20.625Z,52.97
2023-04-29T01:30:45.364Z,53.90
2023-04-29T01:34:17.752Z,54.17
2023-04-29T01:37:48.168Z,54.33
2023-04-29T01:41:18.344Z,54.34
2023-04-29T01:44:35.280Z,54.50
2023-04-29T01:47:43.426Z,54.78
2023-04-29T01:50:50.891Z,54.58
2023-04-29T01:53:58.091Z,54.79
2023-04-29T01:57:07.892Z,54.61
2023-04-29T02:00:34.703Z,55.00
2023-04-29T02:03:42.191Z,54.78
2023-04-29T02:06:50.132Z,55.06
2023-04-29T02:09:58.638Z,54.95
2023-04-29T02:13:07.839Z,55.83
2023-04-29T02:16:17.777Z,55.63
2023-04-29T02:19:33.010Z,55.87
2023-04-29T02:22:43.080Z,56.22
2023-04-29T02:25:50.487Z,56.20
2023-04-29T02:29:00.355Z,56.58
2023-04-29T02:32:06.788Z,56.70
2023-04-29T02:35:17.072Z,56.86
2023-04-29T02:38:22.993Z,56.90
2023-04-29T02:41:29.828Z,56.66
2023-04-29T02:44:38.400Z,55.84
2023-04-29T02:47:45.297Z,56.16
2023-04-29T02:50:51.372Z,56.50
2023-04-29T02:53:58.920Z,56.95
2023-04-29T02:57:06.627Z,57.18
2023-04-29T03:00:22.268Z,57.18
2023-04-29T03:03:28.390Z,57.38
2023-04-29T03:06:35.409Z,57.85
2023-04-29T03:09:41.492Z,58.14
2023-04-29T03:12:48.725Z,58.12
2023-04-29T03:15:58.962Z,58.26
2023-04-29T03:19:05.703Z,57.94
2023-04-29T03:22:12.306Z,58.03
2023-04-29T03:25:28.263Z,57.80
2023-04-29T03:28:48.700Z,57.78
2023-04-29T03:31:58.745Z,58.48
2023-04-29T03:35:14.140Z,58.35
2023-04-29T03:38:42.515Z,58.14
2023-04-29T03:41:50.216Z,58.73
2023-04-29T03:44:57.240Z,58.80
2023-04-29T03:48:19.320Z,58.90
2023-04-29T03:51:28.675Z,59.52
2023-04-29T03:54:45.986Z,59.74
2023-04-29T03:57:53.542Z,59.83
2023-04-29T04:00:59.750Z,60.19
2023-04-29T04:04:16.589Z,60.24
2023-04-29T04:07:25.830Z,60.07
2023-04-29T04:10:56.017Z,60.40
2023-04-29T04:14:21.856Z,60.18
2023-04-29T04:17:28.882Z,60.52
2023-04-29T04:20:40.726Z,60.96
2023-04-29T04:23:47.636Z,61.30
2023-04-29T04:26:59.320Z,60.73
2023-04-29T04:30:15.426Z,60.76
2023-04-29T04:33:23.991Z,60.13
2023-04-29T04:36:33.921Z,60.42
2023-04-29T04:39:39.926Z,60.19
2023-04-29T04:42:48.699Z,60.52
2023-04-29T04:45:55.124Z,60.38
2023-04-29T04:49:02.055Z,60.92
2023-04-29T04:52:16.291Z,61.03
2023-04-29T04:55:29.165Z,61.43
2023-04-29T04:58:39.488Z,61.74
2023-04-29T05:01:46.494Z,62.04
2023-04-29T05:04:53.297Z,62.04
2023-04-29T05:08:04.298Z,62.90
2023-04-29T05:11:21.277Z,62.74
2023-04-29T05:14:46.026Z,62.34
2023-04-29T05:17:53.084Z,61.93
2023-04-29T05:21:01.735Z,61.72
2023-04-29T05:24:10.522Z,61.42
2023-04-29T05:27:18.064Z,61.15
2023-04-29T05:30:25.685Z,60.96
2023-04-29T05:33:33.341Z,61.25
2023-04-29T05:36:40.764Z,61.20
2023-04-29T05:39:50.355Z,61.32
2023-04-29T05:43:03.268Z,62.28
2023-04-29T05:46:12.552Z,62.52
2023-04-29T05:49:18.771Z,62.40
2023-04-29T05:52:26.445Z,63.02
2023-04-29T05:55:38.389Z,63.21
2023-04-29T05:58:46.069Z,63.83
2023-04-29T06:01:58.635Z,64.51
2023-04-29T06:05:07.408Z,64.68
2023-04-29T06:08:21.822Z,64.53
2023-04-29T06:11:41.774Z,65.16
2023-04-29T06:14:47.697Z,65.62
2023-04-29T06:17:56.599Z,66.64
2023-04-29T06:21:02.665Z,67.04
2023-04-29T06:24:09.993Z,66.83
2023-04-29T06:27:18.974Z,66.11
2023-04-29T06:30:25.896Z,66.65
2023-04-29T06:33:34.008Z,66.71
2023-04-29T06:36:41.865Z,67.09
2023-04-29T06:40:18.660Z,68.01
2023-04-29T06:43:54.387Z,66.68
2023-04-29T06:47:26.636Z,66.33
2023-04-29T06:51:01.818Z,66.35
2023-04-29T06:54:08.237Z,66.72
2023-04-29T06:57:15.175Z,66.56
2023-04-29T07:00:32.675Z,67.09
2023-04-29T07:03:42.718Z,67.18
2023-04-29T07:06:48.825Z,67.19
2023-04-29T07:09:58.049Z,66.90
2023-04-29T07:13:04.573Z,66.45
2023-04-29T07:16:28.434Z,65.82
2023-04-29T07:19:34.899Z,66.16
2023-04-29T07:22:41.598Z,66.29
2023-04-29T07:25:47.658Z,66.46
2023-04-29T07:29:03.517Z,66.23
2023-04-29T07:32:12.251Z,66.27
2023-04-29T07:35:19.654Z,66.53
2023-04-29T07:38:27.279Z,67.03
2023-04-29T07:41:34.194Z,65.92
2023-04-29T07:44:40.262Z,65.91
2023-04-29T07:47:56.291Z,64.95
2023-04-29T07:51:02.406Z,65.22
2023-04-29T07:54:09.336Z,65.06
2023-04-29T07:57:15.706Z,65.51
2023-04-29T08:00:25.918Z,64.83
2023-04-29T08:03:34.837Z,64.80
2023-04-29T08:06:43.028Z,64.99
2023-04-29T08:09:51.039Z,64.87
2023-04-29T08:12:58.026Z,63.79
2023-04-29T08:16:04.052Z,64.29
2023-04-29T08:19:13.615Z,63.40
2023-04-29T08:22:19.848Z,61.95
2023-04-29T08:25:27.361Z,61.95
2023-04-29T08:28:33.491Z,61.08
2023-04-29T08:31:40.423Z,58.25
2023-04-29T08:34:49.153Z,59.48
2023-04-29T08:38:05.435Z,56.83
2023-04-29T08:41:19.264Z,57.25
2023-04-29T08:44:26.841Z,57.62
2023-04-29T08:47:42.161Z,56.08
2023-04-29T08:50:51.533Z,54.76
2023-04-29T08:53:59.243Z,54.55
2023-04-29T08:57:08.741Z,53.65
2023-04-29T09:00:28.997Z,53.81
2023-04-29T09:03:50.622Z,53.03
2023-04-29T09:07:01.412Z,51.88
2023-04-29T09:10:28.403Z,50.15
2023-04-29T09:13:36.353Z,47.74
2023-04-29T09:16:43.128Z,46.80
2023-04-29T09:19:49.138Z,43.75
2023-04-29T09:23:01.716Z,44.75
2023-04-29T09:26:11.292Z,47.68
2023-04-29T09:29:18.730Z,48.57
2023-04-29T09:32:24.934Z,50.08
2023-04-29T09:35:32.237Z,50.97
2023-04-29T09:38:58.488Z,51.12
2023-04-29T09:42:06.356Z,52.14
2023-04-29T09:45:13.555Z,52.28
2023-04-29T09:48:40.672Z,53.46
2023-04-29T09:51:57.120Z,53.29
2023-04-29T09:55:24.423Z,54.08
2023-04-29T09:58:40.572Z,54.42
2023-04-29T10:01:47.682Z,54.22
2023-04-29T10:05:00.482Z,52.79
2023-04-29T10:08:28.375Z,52.63
2023-04-29T10:11:38.259Z,52.73
2023-04-29T10:14:55.613Z,52.54
2023-04-29T10:18:17.572Z,51.71
2023-04-29T10:21:32.637Z,52.72
2023-04-29T10:24:42.121Z,51.87
2023-04-29T10:27:53.945Z,51.61
2023-04-29T10:31:04.590Z,52.15
2023-04-29T10:34:11.569Z,53.30
2023-04-29T10:37:19.408Z,54.06
2023-04-29T10:40:39.993Z,53.68
2023-04-29T10:43:49.367Z,53.52
2023-04-29T10:47:23.126Z,53.98
2023-04-29T10:50:32.332Z,54.22
2023-04-29T10:53:39.871Z,54.97
2023-04-29T10:56:51.417Z,54.53
2023-04-29T11:00:00.907Z,54.75
2023-04-29T11:03:56.111Z,54.38
2023-04-29T11:07:10.455Z,54.34
2023-04-29T11:10:21.796Z,55.01
2023-04-29T11:13:44.004Z,55.88
2023-04-29T11:17:01.422Z,57.14
2023-04-29T11:20:18.838Z,59.12
2023-04-29T11:23:28.657Z,61.67
2023-04-29T11:26:37.328Z,63.73
2023-04-29T11:29:43.994Z,65.20
2023-04-29T11:32:53.565Z,66.48
2023-04-29T11:36:00.158Z,66.91
2023-04-29T11:39:08.497Z,67.29
2023-04-29T11:42:14.518Z,68.47
2023-04-29T11:45:22.854Z,69.04
2023-04-29T11:48:33.777Z,68.28
2023-04-29T11:51:41.081Z,67.55
2023-04-29T11:54:47.330Z,67.95
2023-04-29T11:57:58.135Z,66.54
2023-04-29T12:01:05.903Z,64.08
2023-04-29T12:04:15.826Z,63.27
2023-04-29T12:07:22.806Z,60.85
2023-04-29T12:10:32.125Z,59.00
2023-04-29T12:13:45.446Z,55.47
2023-04-29T12:16:54.496Z,53.83
2023-04-29T12:20:10.684Z,52.43
2023-04-29T12:23:26.961Z,52.31
2023-04-29T12:26:34.654Z,50.99
2023-04-29T12:29:43.539Z,49.75
2023-04-29T12:32:49.588Z,49.55
2023-04-29T12:36:02.381Z,49.02
2023-04-29T12:39:12.963Z,49.79
2023-04-29T12:42:20.374Z,53.57
2023-04-29T12:45:33.328Z,53.99
2023-04-29T12:48:42.009Z,54.79
2023-04-29T12:51:51.114Z,55.31
2023-04-29T12:54:58.119Z,56.28
2023-04-29T12:58:09.718Z,55.29
2023-04-29T13:01:24.755Z,54.67
2023-04-29T13:04:38.567Z,54.11
2023-04-29T13:07:49.318Z,54.20
2023-04-29T13:10:56.566Z,54.59
2023-04-29T13:14:09.515Z,57.42
2023-04-29T13:17:19.170Z,58.21
2023-04-29T13:20:25.984Z,57.35
2023-04-29T13:23:41.410Z,56.87
2023-04-29T13:26:50.284Z,56.87
2023-04-29T13:29:58.479Z,53.89
2023-04-29T13:33:12.390Z,52.86
2023-04-29T13:36:19.293Z,52.85
2023-04-29T13:39:28.714Z,51.34
2023-04-29T13:42:39.213Z,51.90
2023-04-29T13:45:57.153Z,52.59
2023-04-29T13:49:31.210Z,54.06
2023-04-29T13:56:34.635Z,52.12
2023-04-29T14:05:29.388Z,57.86
2023-04-29T14:08:35.635Z,57.94
2023-04-29T14:11:44.943Z,57.81
2023-04-29T14:14:51.012Z,56.92
2023-04-29T14:17:58.466Z,56.96
2023-04-29T14:21:04.463Z,56.84
2023-04-29T14:24:11.281Z,57.00
2023-04-29T14:27:26.554Z,56.24
2023-04-29T14:30:33.977Z,56.53
2023-04-29T14:33:40.066Z,55.99
2023-04-29T14:36:59.458Z,55.57
2023-04-29T14:40:06.692Z,54.93
2023-04-29T14:43:31.622Z,53.76
2023-04-29T14:46:38.112Z,54.41
2023-04-29T14:49:44.981Z,53.36
2023-04-29T14:52:51.124Z,53.57
2023-04-29T14:55:58.072Z,54.71
2023-04-29T14:59:08.961Z,57.00
2023-04-29T15:02:15.757Z,56.75
2023-04-29T15:05:21.734Z,56.79
2023-04-29T15:08:28.582Z,56.30
2023-04-29T15:11:41.842Z,55.12
2023-04-29T15:14:53.203Z,54.40
2023-04-29T15:17:59.616Z,55.87
2023-04-29T15:21:06.706Z,56.01
2023-04-29T15:24:13.499Z,55.80
2023-04-29T15:27:23.901Z,56.01
2023-04-29T15:30:35.966Z,55.97
2023-04-29T15:33:43.786Z,54.97
2023-04-29T15:36:56.718Z,55.03
2023-04-29T15:40:15.828Z,55.28
2023-04-29T15:43:23.399Z,56.15
2023-04-29T15:46:34.196Z,56.74
2023-04-29T15:49:40.218Z,57.59
2023-04-29T15:52:47.051Z,57.59
2023-04-29T15:55:53.171Z,58.42
2023-04-29T15:59:00.013Z,58.92
2023-04-29T16:02:21.854Z,60.45
2023-04-29T16:05:31.930Z,61.16
2023-04-29T16:08:37.976Z,62.03
2023-04-29T16:11:52.623Z,62.37
2023-04-29T16:15:00.635Z,62.88
2023-04-29T16:18:10.172Z,61.40
2023-04-29T16:21:16.235Z,61.69
2023-04-29T16:24:23.333Z,62.96
2023-04-29T16:27:31.009Z,63.94
2023-04-29T16:30:38.979Z,64.19
2023-04-29T16:33:49.649Z,64.69
2023-04-29T16:36:57.232Z,66.29
2023-04-29T16:40:06.154Z,66.63
2023-04-29T16:43:14.684Z,68.20
2023-04-29T16:46:21.029Z,68.70
2023-04-29T16:49:30.498Z,69.03
2023-04-29T16:52:36.532Z,68.47
2023-04-29T16:55:43.293Z,67.65
2023-04-29T16:58:49.275Z,67.77
2023-04-29T17:01:58.074Z,68.17
2023-04-29T17:05:07.557Z,68.86
2023-04-29T17:08:15.030Z,69.13
2023-04-29T17:11:21.096Z,69.77
2023-04-29T17:14:28.093Z,70.42
2023-04-29T17:17:34.987Z,70.58
2023-04-29T17:20:44.945Z,71.41
2023-04-29T17:23:51.501Z,71.56
2023-04-29T17:26:59.816Z,71.00
2023-04-29T17:30:11.268Z,71.82
2023-04-29T17:33:18.063Z,71.56
2023-04-29T17:36:27.202Z,71.56
2023-04-29T17:39:36.502Z,71.83
2023-04-29T17:42:42.375Z,71.87
2023-04-29T17:45:49.196Z,72.60
2023-04-29T17:48:55.155Z,72.77
2023-04-29T17:52:05.072Z,73.40
2023-04-29T17:55:12.512Z,73.81
2023-04-29T17:58:19.315Z,73.44
2023-04-29T18:01:25.398Z,73.76
2023-04-29T18:04:32.326Z,74.15
2023-04-29T18:07:46.837Z,74.31
2023-04-29T18:10:53.596Z,74.51
2023-04-29T18:13:59.533Z,75.14
2023-04-29T18:17:06.340Z,75.01
2023-04-29T18:20:16.070Z,75.22
2023-04-29T18:23:25.662Z,74.70
2023-04-29T18:26:31.744Z,75.16
2023-04-29T18:29:38.581Z,75.27
2023-04-29T18:32:44.692Z,75.00
2023-04-29T18:35:52.665Z,75.08
2023-04-29T18:39:01.175Z,74.98
2023-04-29T18:42:08.893Z,74.88
2023-04-29T18:45:15.348Z,74.24
2023-04-29T18:48:22.328Z,75.00
2023-04-29T18:51:28.396Z,74.66
2023-04-29T18:54:38.461Z,75.12
2023-04-29T18:57:44.610Z,74.64
2023-04-29T19:00:53.397Z,74.51
2023-04-29T19:03:59.954Z,74.09
2023-04-29T19:07:09.629Z,73.49
2023-04-29T19:10:18.395Z,73.75
2023-04-29T19:13:25.118Z,73.82
2023-04-29T19:16:31.178Z,73.66
2023-04-29T19:19:37.953Z,73.53
2023-04-29T19:22:44.027Z,74.62
2023-04-29T19:25:53.346Z,74.81
2023-04-29T19:29:00.147Z,74.98
2023-04-29T19:32:07.248Z,74.68
2023-04-29T19:35:14.050Z,75.57
2023-04-29T19:38:21.308Z,75.94
2023-04-29T19:41:30.219Z,77.16
2023-04-29T19:44:37.050Z,76.84
2023-04-29T19:47:43.391Z,77.96
2023-04-29T19:50:51.143Z,78.47
2023-04-29T19:54:00.332Z,80.43
2023-04-29T19:57:11.767Z,80.08
2023-04-29T20:00:18.467Z,81.26
2023-04-29T20:03:28.882Z,81.31
2023-04-29T20:06:37.911Z,81.36
2023-04-29T20:09:45.922Z,81.23
2023-04-29T20:12:54.725Z,80.82
2023-04-29T20:16:01.746Z,81.22
2023-04-29T20:19:07.713Z,80.63
2023-04-29T20:22:17.892Z,80.78
2023-04-29T20:25:42.919Z,80.39
2023-04-29T20:28:52.416Z,79.81
2023-04-29T20:31:58.450Z,79.89
2023-04-29T20:35:06.723Z,80.70
2023-04-29T20:38:12.785Z,80.43
2023-04-29T20:41:19.597Z,81.20
2023-04-29T20:44:33.735Z,80.98
2023-04-29T20:47:40.770Z,82.05
2023-04-29T20:50:52.926Z,81.61
2023-04-29T20:53:59.706Z,81.61
2023-04-29T20:57:12.639Z,81.89
2023-04-29T21:00:25.426Z,81.33
2023-04-29T21:03:31.431Z,82.41
2023-04-29T21:06:38.458Z,81.92
2023-04-29T21:09:44.744Z,82.46
2023-04-29T21:13:13.852Z,82.38
2023-04-29T21:16:23.170Z,82.91
2023-04-29T21:19:35.830Z,82.89
2023-04-29T21:22:46.782Z,82.42
2023-04-29T21:25:53.743Z,81.89
2023-04-29T21:29:00.213Z,82.41
2023-04-29T21:32:38.374Z,82.29
2023-04-29T21:35:48.973Z,82.56
2023-04-29T21:38:57.069Z,82.30
2023-04-29T21:42:04.309Z,81.50
2023-04-29T21:45:12.469Z,82.01
2023-04-29T21:48:31.732Z,80.97
2023-04-29T21:51:40.864Z,81.46
2023-04-29T21:54:47.945Z,81.59
2023-04-29T21:57:54.781Z,81.79
2023-04-29T22:01:33.744Z,81.55
2023-04-29T22:04:45.782Z,81.00
2023-04-29T22:07:51.678Z,81.22
2023-04-29T22:10:58.478Z,81.33
2023-04-29T22:14:04.791Z,81.16
2023-04-29T22:17:11.712Z,80.26
2023-04-29T22:20:20.319Z,80.08
2023-04-29T22:23:27.112Z,80.56
2023-04-29T22:26:33.151Z,80.38
2023-04-29T22:29:39.990Z,80.16
2023-04-29T22:32:45.923Z,80.54
2023-04-29T22:35:55.352Z,80.75
2023-04-29T22:39:01.763Z,80.13
2023-04-29T22:42:08.629Z,80.25
2023-04-29T22:45:16.101Z,80.59
2023-04-29T22:48:25.090Z,80.66
2023-04-29T22:51:35.291Z,81.27
2023-04-29T22:54:42.201Z,81.24
2023-04-29T22:57:48.341Z,81.88
2023-04-29T23:00:57.912Z,82.54
2023-04-29T23:04:04.117Z,82.38
2023-04-29T23:07:16.300Z,82.47
2023-04-29T23:10:22.472Z,83.27
2023-04-29T23:13:29.352Z,83.34
2023-04-29T23:16:35.516Z,83.22
2023-04-29T23:19:42.715Z,83.31
2023-04-29T23:22:51.290Z,83.55
2023-04-29T23:25:58.420Z,84.37
2023-04-29T23:29:04.554Z,85.01
2023-04-29T23:32:11.381Z,84.26
2023-04-29T23:35:17.359Z,85.56
2023-04-29T23:38:26.683Z,85.95
2023-04-29T23:41:32.783Z,86.11
2023-04-29T23:44:40.039Z,85.72
2023-04-29T23:47:46.104Z,85.79
2023-04-29T23:50:53.083Z,85.71
2023-04-29T23:54:01.548Z,85.33
2023-04-29T23:57:08.529Z,85.17
